Time;durP1;ratioP1;P1;durP2;ratioP2;P2;SDS_P1;SDS_P2;PMS_P1;PMS_P2;Temp;Humidity;BMP_temperature;BMP_pressure;BME280_temperature;BME280_humidity;BME280_pressure;Samples;Min_cycle;Max_cycle;Signal;HPM_P1;HPM_P2
2021/12/15 00:00:29;;;;;;;77.80;27.38;;;;;;;-2.15;85.86;99965.38;4996839;28;20081;-80
2021/12/15 00:02:54;;;;;;;75.50;29.63;;;;;;;-2.13;86.18;99968.84;4964760;28;20045;-80
2021/12/15 00:05:22;;;;;;;69.82;26.92;;;;;;;-2.14;85.93;99962.03;4996894;28;20041;-79
2021/12/15 00:07:59;;;;;;;68.45;28.02;;;;;;;-2.15;85.90;99963.69;4996954;28;20845;-79
2021/12/15 00:10:25;;;;;;;78.07;28.95;;;;;;;-2.17;85.96;99960.19;4996788;28;20531;-82
2021/12/15 00:12:51;;;;;;;70.18;27.35;;;;;;;-2.18;86.19;99961.00;4996524;28;20180;-82
2021/12/15 00:15:17;;;;;;;69.97;28.55;;;;;;;-2.16;86.00;99954.31;5013112;28;20121;-81
2021/12/15 00:17:43;;;;;;;74.65;26.27;;;;;;;-2.16;85.93;99961.06;4996547;28;20072;-79
2021/12/15 00:20:10;;;;;;;81.78;28.58;;;;;;;-2.17;86.10;99966.94;4996955;28;20488;-80
2021/12/15 00:22:37;;;;;;;74.53;26.38;;;;;;;-2.22;85.87;99976.88;4996223;28;20045;-81
2021/12/15 00:25:04;;;;;;;74.70;28.55;;;;;;;-2.22;86.03;99969.25;5012865;28;20373;-78
2021/12/15 00:27:30;;;;;;;72.80;28.48;;;;;;;-2.18;85.74;99967.75;5012394;28;20068;-78
2021/12/15 00:29:55;;;;;;;73.47;26.27;;;;;;;-2.19;86.23;99961.78;5012660;28;20045;-79
2021/12/15 00:32:21;;;;;;;75.85;28.08;;;;;;;-2.19;86.17;99960.94;4996268;28;20052;-79
2021/12/15 00:34:48;;;;;;;80.88;29.38;;;;;;;-2.21;86.89;99963.38;4979763;28;20034;-79
2021/12/15 00:37:14;;;;;;;85.95;30.02;;;;;;;-2.24;86.45;99968.31;4980498;28;20439;-79
2021/12/15 00:39:40;;;;;;;75.65;28.10;;;;;;;-2.23;87.07;99967.50;4979857;28;20125;-80
2021/12/15 00:42:06;;;;;;;71.15;27.20;;;;;;;-2.15;86.70;99973.00;4980077;28;20554;-79
2021/12/15 00:44:34;;;;;;;83.70;29.52;;;;;;;-2.15;85.86;99978.94;5013915;28;20053;-80
2021/12/15 00:47:00;;;;;;;67.75;27.40;;;;;;;-2.17;86.18;99977.97;4980454;28;20569;-79
2021/12/15 00:49:26;;;;;;;73.65;27.50;;;;;;;-2.17;86.17;99977.97;4995774;28;20116;-79
2021/12/15 00:51:52;;;;;;;77.18;26.90;;;;;;;-2.18;86.07;99976.25;4995995;28;20808;-80
2021/12/15 00:54:18;;;;;;;72.18;28.13;;;;;;;-2.19;86.40;99982.13;4980140;28;20451;-83
2021/12/15 00:56:43;;;;;;;61.08;23.77;;;;;;;-2.20;86.01;99985.47;4980171;28;20037;-80
2021/12/15 00:59:09;;;;;;;82.32;28.75;;;;;;;-2.22;86.52;99978.53;4995999;28;20038;-80
2021/12/15 01:01:35;;;;;;;77.93;27.20;;;;;;;-2.25;86.61;99975.84;4979778;28;20049;-81
2021/12/15 01:04:03;;;;;;;77.43;28.58;;;;;;;-2.27;86.35;99970.69;4964254;28;20041;-80
2021/12/15 01:06:29;;;;;;;63.65;25.05;;;;;;;-2.20;86.65;99954.97;4996418;28;20578;-82
2021/12/15 01:08:58;;;;;;;75.68;26.90;;;;;;;-2.16;86.35;99961.06;4963897;28;20497;-81
2021/12/15 01:12:45;;;;;;;70.88;27.45;;;;;;;-2.12;86.02;99955.34;4996118;28;20045;-80
2021/12/15 01:19:54;;;;;;;63.35;24.08;;;;;;;-2.06;86.31;99954.00;4998301;28;20046;-81
2021/12/15 01:22:26;;;;;;;64.60;26.40;;;;;;;-2.08;85.04;99954.72;4979424;28;20585;-79
2021/12/15 01:24:55;;;;;;;57.05;25.20;;;;;;;-2.10;85.64;99944.47;4995879;28;20057;-79
2021/12/15 01:27:21;;;;;;;63.83;24.58;;;;;;;-2.15;85.42;99933.19;4996414;28;20205;-81
2021/12/15 01:29:47;;;;;;;;;;;;;;;-2.18;85.13;99937.25;4996218;28;20041;-78
2021/12/15 01:32:13;;;;;;;64.85;26.00;;;;;;;-2.25;85.78;99935.19;5011568;28;19914;-80
2021/12/15 01:34:39;;;;;;;62.42;26.00;;;;;;;-2.28;86.23;99932.50;4995160;28;20100;-80
2021/12/15 01:37:05;;;;;;;60.13;24.30;;;;;;;-2.30;85.80;99933.28;4963044;28;20559;-77
2021/12/15 01:39:31;;;;;;;66.63;27.02;;;;;;;-2.27;86.06;99936.78;4980566;28;20053;-80
2021/12/15 01:41:57;;;;;;;60.47;24.55;;;;;;;-2.24;85.94;99945.44;4999514;28;20461;-80
2021/12/15 01:46:59;;;;;;;60.75;24.38;;;;;;;-2.22;85.68;99953.13;4999144;28;19959;-81
2021/12/15 01:49:37;;;;;;;63.10;24.50;;;;;;;-2.30;85.57;99952.72;5017053;28;20080;-80
2021/12/15 01:52:13;;;;;;;66.63;27.35;;;;;;;-2.33;86.19;99950.91;4999593;28;20053;-80
2021/12/15 01:54:40;;;;;;;62.13;24.33;;;;;;;-2.24;86.44;99942.03;4983561;28;20088;-80
2021/12/15 01:57:06;;;;;;;57.65;24.50;;;;;;;-2.17;86.14;99944.94;4999968;28;20120;-80
2021/12/15 01:59:32;;;;;;;;;;;;;;;-2.21;86.34;99945.56;4967212;28;20144;-81
2021/12/15 02:01:58;;;;;;;64.60;25.98;;;;;;;-2.26;85.81;99934.31;4999216;28;19956;-78
2021/12/15 02:04:24;;;;;;;65.70;26.67;;;;;;;-2.29;85.69;99939.25;4999093;28;20038;-79
2021/12/15 02:06:51;;;;;;;66.95;26.15;;;;;;;-2.30;85.95;99935.81;4998759;28;20064;-78
2021/12/15 02:09:31;;;;;;;67.82;26.80;;;;;;;-2.32;86.32;99934.00;4982571;28;20056;-77
2021/12/15 02:11:57;;;;;;;72.25;26.70;;;;;;;-2.32;86.10;99939.09;4970326;28;20092;-79
2021/12/15 02:14:23;;;;;;;70.18;28.17;;;;;;;-2.30;86.37;99937.47;4982911;28;20068;-79
2021/12/15 02:16:49;;;;;;;;;;;;;;;-2.28;86.22;99940.13;4983003;28;20052;-79
2021/12/15 02:19:14;;;;;;;78.70;26.77;;;;;;;-2.27;86.26;99935.13;4982432;28;19913;-78
2021/12/15 02:21:41;;;;;;;77.18;28.25;;;;;;;-2.32;85.99;99929.78;4966618;28;20516;-79
2021/12/15 02:24:06;;;;;;;74.18;28.05;;;;;;;-2.34;86.28;99927.97;4966212;28;20045;-78
2021/12/15 02:26:36;;;;;;;76.47;26.92;;;;;;;-2.31;85.78;99931.53;4966272;28;20042;-80
2021/12/15 02:29:06;;;;;;;74.78;28.40;;;;;;;-2.31;85.92;99923.03;4998996;28;20511;-80
2021/12/15 02:31:51;;;;;;;76.05;27.63;;;;;;;-2.38;85.76;99923.53;4998498;28;20385;-79
2021/12/15 02:34:34;;;;;;;77.32;29.02;;;;;;;-2.39;85.73;99930.25;4970999;28;20042;-81
2021/12/15 02:37:17;;;;;;;81.00;26.20;;;;;;;-2.36;86.05;99921.94;4983976;28;20037;-81
2021/12/15 02:39:51;;;;;;;69.45;25.17;;;;;;;-2.38;86.00;99921.00;5014707;28;20200;-81
2021/12/15 02:42:17;;;;;;;77.28;28.33;;;;;;;-2.39;86.27;99921.78;4983123;28;20048;-79
2021/12/15 02:44:44;;;;;;;67.28;25.75;;;;;;;-2.40;86.07;99917.50;5014427;28;20025;-79
2021/12/15 02:47:15;;;;;;;77.95;28.75;;;;;;;-2.40;85.88;99913.28;4981992;28;20251;-79
2021/12/15 02:49:41;;;;;;;78.55;28.13;;;;;;;-2.37;86.23;99910.03;4998106;28;20041;-78
2021/12/15 02:52:07;;;;;;;72.57;28.30;;;;;;;-2.38;86.35;99905.75;4981047;28;20030;-78
2021/12/15 02:54:33;;;;;;;;;;;;;;;-2.36;86.45;99911.78;4981885;28;20112;-78
2021/12/15 02:57:05;;;;;;;77.60;26.20;;;;;;;-2.26;86.35;99913.97;4997922;28;19913;-79
2021/12/15 02:59:40;;;;;;;70.88;26.33;;;;;;;-2.26;86.27;99924.16;4999315;28;20046;-79
2021/12/15 03:07:13;;;;;;;69.75;27.27;;;;;;;-2.31;85.94;99915.41;4983547;28;20038;-79
2021/12/15 03:15:24;;;;;;;73.45;26.58;;;;;;;-2.29;85.55;99916.38;4992499;28;20045;-80
2021/12/15 03:17:58;;;;;;;68.60;26.63;;;;;;;-2.29;85.94;99918.94;4983345;28;20395;-79
2021/12/15 03:20:25;;;;;;;61.20;24.83;;;;;;;-2.22;86.47;99920.09;4997646;28;20053;-82
2021/12/15 03:22:51;;;;;;;65.10;24.77;;;;;;;-2.21;86.15;99926.91;4965566;28;20034;-83
2021/12/15 03:25:17;;;;;;;70.85;25.88;;;;;;;-2.22;85.97;99920.97;4997715;28;20053;-79
2021/12/15 03:36:04;;;;;;;54.47;22.67;;;;;;;-2.15;84.79;99917.97;4985523;28;20065;-80
2021/12/15 03:38:30;;;;;;;59.72;25.30;;;;;;;-2.17;84.54;99919.53;4981957;28;20455;-79
2021/12/15 03:40:56;;;;;;;57.08;24.73;;;;;;;-2.19;85.08;99916.06;4965040;28;20046;-79
2021/12/15 03:43:21;;;;;;;;;;;;;;;-2.17;84.87;99926.28;4965508;28;20096;-79
2021/12/15 03:45:58;;;;;;;59.80;25.20;;;;;;;-2.24;84.64;99920.03;4980368;28;19913;-79
2021/12/15 03:48:26;;;;;;;61.53;24.40;;;;;;;-2.23;85.10;99920.91;5014480;28;20073;-80
2021/12/15 03:50:53;;;;;;;62.15;25.15;;;;;;;-2.25;84.90;99914.84;4997383;28;20033;-80
2021/12/15 03:53:19;;;;;;;61.72;24.30;;;;;;;-2.22;85.56;99910.81;4981033;28;20196;-80
2021/12/15 03:55:45;;;;;;;59.47;24.75;;;;;;;-2.18;84.91;99912.72;4981243;28;20050;-80
2021/12/15 03:58:15;;;;;;;53.42;22.63;;;;;;;-2.15;84.69;99912.00;4996855;28;20061;-80
2021/12/15 04:00:44;;;;;;;55.55;24.35;;;;;;;-2.12;84.92;99912.13;4996306;28;20096;-79
2021/12/15 04:03:17;;;;;;;59.53;24.60;;;;;;;-2.14;84.43;99901.91;4966699;28;20036;-79
2021/12/15 04:05:43;;;;;;;60.15;25.67;;;;;;;-2.10;84.92;99908.88;5003669;28;20038;-79
2021/12/15 04:08:09;;;;;;;63.35;24.45;;;;;;;-2.07;85.25;99906.47;4984966;28;20112;-79
2021/12/15 04:10:36;;;;;;;58.58;25.27;;;;;;;-2.03;84.46;99907.50;5016336;28;20049;-81
2021/12/15 04:13:02;;;;;;;63.47;26.95;;;;;;;-2.12;84.24;99902.84;5034037;28;20124;-81
2021/12/15 04:15:30;;;;;;;;;;;;;;;-2.20;84.79;99901.59;4979978;28;20510;-82
2021/12/15 04:18:01;;;;;;;66.80;25.67;;;;;;;-2.23;85.13;99903.13;4993684;28;19921;-83
2021/12/15 04:20:29;;;;;;;64.35;26.20;;;;;;;-2.27;85.06;99909.69;4978143;28;20042;-79
2021/12/15 04:22:54;;;;;;;66.32;25.83;;;;;;;-2.26;85.65;99913.97;4977768;28;20112;-80
2021/12/15 04:25:25;;;;;;;64.57;26.90;;;;;;;-2.27;85.24;99912.25;4978272;28;20074;-82
2021/12/15 04:28:06;;;;;;;65.28;25.60;;;;;;;-2.29;85.49;99913.84;4978089;28;20085;-80
2021/12/15 04:30:34;;;;;;;65.75;26.05;;;;;;;-2.29;85.59;99903.69;4979323;28;20487;-83
2021/12/15 04:33:03;;;;;;;61.53;26.25;;;;;;;-2.29;85.65;99903.69;4976822;28;20396;-80
2021/12/15 04:35:29;;;;;;;55.88;24.63;;;;;;;-2.30;85.41;99901.91;4994195;28;20045;-80
2021/12/15 04:37:55;;;;;;;60.28;25.33;;;;;;;-2.28;85.82;99904.56;4976499;28;20417;-80
2021/12/15 04:40:21;;;;;;;57.97;24.92;;;;;;;-2.26;85.69;99900.41;4993975;28;20086;-79
2021/12/15 04:42:47;;;;;;;60.75;28.50;;;;;;;-2.22;85.69;99907.41;4960808;28;20065;-80
2021/12/15 04:45:15;;;;;;;62.10;26.13;;;;;;;-2.20;86.03;99906.69;4996189;28;20535;-81
2021/12/15 04:47:41;;;;;;;62.65;26.33;;;;;;;-2.21;85.68;99894.75;4996153;28;20044;-79
2021/12/15 04:50:06;;;;;;;;;;;;;;;-2.19;85.98;99897.41;4996852;28;20046;-81
2021/12/15 04:52:32;;;;;;;55.30;24.50;;;;;;;-2.16;85.28;99893.31;5012566;28;20287;-81
2021/12/15 04:54:58;;;;;;;61.17;25.70;;;;;;;-2.27;84.90;99891.91;4996585;28;20037;-80
2021/12/15 04:57:24;;;;;;;57.78;27.13;;;;;;;-2.27;85.25;99884.28;5028848;28;20034;-80
2021/12/15 04:59:50;;;;;;;54.47;25.42;;;;;;;-2.23;85.67;99883.66;4995739;28;20049;-80
2021/12/15 05:02:16;;;;;;;57.60;25.77;;;;;;;-2.17;85.57;99891.56;5011893;28;20037;-80
2021/12/15 05:04:41;;;;;;;;;;;;;;;-2.21;85.43;99894.75;5029174;28;20385;-81
2021/12/15 05:07:08;;;;;;;52.90;23.85;;;;;;;-2.22;85.16;99890.47;5013640;28;19948;-80
2021/12/15 05:09:33;;;;;;;52.38;24.30;;;;;;;-2.16;85.38;99894.97;4996083;28;20508;-81
2021/12/15 05:11:59;;;;;;;58.80;26.33;;;;;;;-2.16;85.58;99895.84;4996435;28;20041;-80
2021/12/15 05:14:25;;;;;;;59.88;25.73;;;;;;;-2.17;84.81;99894.13;5011766;28;20053;-81
2021/12/15 05:16:51;;;;;;;59.40;25.92;;;;;;;-2.16;85.43;99888.22;5012158;28;20037;-80
2021/12/15 05:19:17;;;;;;;;;;;;;;;-2.16;84.73;99895.84;5012515;28;20065;-80
2021/12/15 05:21:43;;;;;;;56.63;24.02;;;;;;;-2.17;85.03;99895.78;5018490;28;19918;-79
2021/12/15 05:24:22;;;;;;;57.50;25.15;;;;;;;-2.16;84.74;99893.31;5007714;28;20049;-82
2021/12/15 05:26:48;;;;;;;52.33;23.80;;;;;;;-2.18;85.16;99897.47;5017131;28;20049;-80
2021/12/15 05:29:14;;;;;;;;;;;;;;;-2.23;84.71;99893.81;5000210;28;20492;-79
2021/12/15 05:31:39;;;;;;;52.75;24.20;;;;;;;-2.23;84.03;99901.44;4995579;28;19925;-79
2021/12/15 05:34:05;;;;;;;51.05;23.85;;;;;;;-2.22;83.94;99900.63;4995792;28;20145;-80
2021/12/15 05:36:31;;;;;;;49.70;25.20;;;;;;;-2.20;84.44;99904.16;4980761;28;20112;-80
2021/12/15 05:38:57;;;;;;;51.42;23.40;;;;;;;-2.24;84.81;99906.47;5015439;28;20053;-81
2021/12/15 05:41:23;;;;;;;50.78;24.30;;;;;;;-2.24;84.54;99906.47;4999342;28;20560;-80
2021/12/15 05:43:48;;;;;;;;;;;;;;;-2.24;84.27;99907.31;5015548;28;20037;-79
2021/12/15 05:46:14;;;;;;;52.30;24.98;;;;;;;-2.25;84.66;99903.00;5002392;28;19920;-80
2021/12/15 05:48:40;;;;;;;52.38;24.60;;;;;;;-2.23;85.06;99909.06;5019524;28;20037;-79
2021/12/15 05:51:05;;;;;;;52.92;24.42;;;;;;;-2.23;84.77;99914.16;5001196;28;20037;-80
2021/12/15 05:53:31;;;;;;;53.55;25.10;;;;;;;-2.25;84.89;99915.72;5013333;28;20050;-79
2021/12/15 05:55:57;;;;;;;56.47;25.35;;;;;;;-2.27;84.39;99909.69;5008680;28;20041;-78
2021/12/15 05:58:22;;;;;;;52.30;23.98;;;;;;;-2.25;84.50;99909.78;4998963;28;20064;-79
2021/12/15 06:00:48;;;;;;;54.90;25.42;;;;;;;-2.25;84.57;99910.63;5033627;28;20056;-79
2021/12/15 06:03:14;;;;;;;56.13;25.15;;;;;;;-2.27;84.63;99911.38;4999210;28;20041;-78
2021/12/15 06:05:40;;;;;;;53.88;26.38;;;;;;;-2.27;84.78;99916.47;5002669;28;20653;-79
2021/12/15 06:08:06;;;;;;;58.38;25.20;;;;;;;-2.31;84.64;99910.34;5011628;28;20503;-80
2021/12/15 06:10:33;;;;;;;49.00;24.65;;;;;;;-2.28;84.44;99900.34;4963665;28;20128;-79
2021/12/15 06:12:59;;;;;;;51.85;25.15;;;;;;;-2.30;84.29;99896.84;4979857;28;20033;-79
2021/12/15 06:15:26;;;;;;;55.88;25.50;;;;;;;-2.27;84.47;99907.16;4979203;28;20049;-81
2021/12/15 06:17:55;;;;;;;57.90;25.15;;;;;;;-2.29;84.41;99908.75;5004996;28;20038;-81
2021/12/15 06:20:21;;;;;;;52.08;26.23;;;;;;;-2.28;83.72;99900.34;4998515;28;20403;-80
2021/12/15 06:22:47;;;;;;;56.88;26.25;;;;;;;-2.25;84.39;99910.63;5028154;28;20045;-80
2021/12/15 06:25:13;;;;;;;56.90;25.63;;;;;;;-2.24;84.44;99906.47;5014367;28;20041;-80
2021/12/15 06:27:40;;;;;;;57.17;26.13;;;;;;;-2.25;84.19;99908.09;4995336;28;20021;-80
2021/12/15 06:30:07;;;;;;;54.92;25.13;;;;;;;-2.33;84.23;99906.88;4993214;28;20486;-81
2021/12/15 06:32:33;;;;;;;56.25;26.63;;;;;;;-2.31;83.95;99902.72;4996672;28;20089;-80
2021/12/15 06:34:59;;;;;;;59.28;25.77;;;;;;;-2.29;84.57;99908.75;5001214;28;20167;-80
2021/12/15 06:37:24;;;;;;;59.15;26.42;;;;;;;-2.28;84.08;99900.34;5016756;28;20499;-79
2021/12/15 06:39:50;;;;;;;57.00;26.48;;;;;;;-2.22;84.39;99905.72;5016714;28;20554;-82
2021/12/15 06:42:16;;;;;;;56.92;25.98;;;;;;;-2.24;84.59;99907.31;5032057;28;20049;-81
2021/12/15 06:44:41;;;;;;;60.60;26.55;;;;;;;-2.23;84.25;99906.53;5016293;28;20455;-79
2021/12/15 06:58:32;;;;;;;61.28;27.15;;;;;;;-2.17;84.33;99917.00;4954072;29;20044;-80
2021/12/15 07:00:59;;;;;;;64.97;28.13;;;;;;;-2.19;84.28;99910.97;5022250;28;20076;-83
2021/12/15 07:03:25;;;;;;;60.97;26.10;;;;;;;-2.17;84.01;99914.44;5001913;28;20045;-80
2021/12/15 07:05:52;;;;;;;61.33;28.50;;;;;;;-2.13;84.05;99916.34;5018151;28;20127;-82
2021/12/15 07:08:18;;;;;;;64.85;27.50;;;;;;;-2.13;84.11;99910.41;5017927;28;20038;-80
2021/12/15 07:10:45;;;;;;;62.58;25.27;;;;;;;-2.10;83.85;99910.56;5001180;28;20033;-79
2021/12/15 07:13:11;;;;;;;63.60;27.20;;;;;;;-2.11;84.17;99914.78;5035249;28;20049;-80
2021/12/15 07:15:38;;;;;;;60.20;25.38;;;;;;;-2.10;83.83;99915.66;5017668;28;20152;-80
2021/12/15 07:18:05;;;;;;;;;;;;;;;-2.13;83.52;99926.50;5035601;28;20703;-79
2021/12/15 07:22:57;;;;;;;;;;;;;;;-2.14;83.96;99924.78;4997494;28;20500;-81
2021/12/15 07:25:24;;;;;;;54.97;25.13;;;;;;;-2.14;83.61;99929.00;5028090;28;20031;-80
2021/12/15 07:27:50;;;;;;;61.10;26.58;;;;;;;-2.12;83.57;99923.16;5014680;28;20041;-80
2021/12/15 07:30:16;;;;;;;64.53;27.05;;;;;;;-2.10;83.98;99935.97;5010812;28;20034;-80
2021/12/15 07:32:42;;;;;;;62.38;26.23;;;;;;;-2.07;83.90;99920.84;5028706;28;20516;-81
2021/12/15 07:35:09;;;;;;;62.50;27.58;;;;;;;-2.04;84.10;99933.75;4995556;28;20041;-81
2021/12/15 07:37:35;;;;;;;61.90;26.83;;;;;;;-2.01;83.85;99935.56;5010369;28;20037;-79
2021/12/15 07:40:02;;;;;;;60.53;27.00;;;;;;;-2.05;83.54;99934.53;5034256;28;20103;-81
2021/12/15 07:42:36;;;;;;;64.20;27.40;;;;;;;-2.06;84.00;99933.66;5017020;28;20041;-80
2021/12/15 07:45:03;;;;;;;59.88;25.33;;;;;;;-2.01;83.75;99936.44;5007151;28;20034;-80
2021/12/15 07:47:29;;;;;;;57.08;25.92;;;;;;;-2.06;83.60;99925.19;4991949;28;20506;-83
2021/12/15 07:49:59;;;;;;;59.35;26.13;;;;;;;-1.95;83.50;99954.53;5016231;28;20048;-81
2021/12/15 07:52:25;;;;;;;56.28;26.42;;;;;;;-1.97;83.65;99937.44;5002593;28;20153;-80
2021/12/15 07:54:51;;;;;;;59.28;26.75;;;;;;;-1.95;83.61;99951.13;4997978;28;20131;-77
2021/12/15 07:57:19;;;;;;;62.47;26.85;;;;;;;-2.02;83.44;99952.47;5030915;28;20450;-79
2021/12/15 07:59:45;;;;;;;54.90;26.55;;;;;;;-2.02;83.28;99964.31;5016686;28;20037;-79
2021/12/15 08:02:10;;;;;;;59.40;25.35;;;;;;;-2.06;83.32;99963.31;5025452;28;20108;-78
2021/12/15 08:04:36;;;;;;;56.03;25.13;;;;;;;-2.05;83.48;99958.28;5016401;28;20049;-78
2021/12/15 08:07:02;;;;;;;58.97;26.25;;;;;;;-2.01;83.81;99955.91;5013429;28;20116;-77
2021/12/15 08:09:28;;;;;;;58.97;25.48;;;;;;;-2.02;83.06;99959.22;5035010;28;20041;-78
2021/12/15 08:11:53;;;;;;;55.45;23.67;;;;;;;-2.01;83.39;99961.88;5035218;28;20037;-79
2021/12/15 08:14:19;;;;;;;55.92;24.77;;;;;;;-2.03;83.09;99958.34;5034114;28;20091;-78
2021/12/15 08:16:45;;;;;;;58.25;25.17;;;;;;;-2.08;83.69;99957.25;5000465;28;20037;-81
2021/12/15 08:19:15;;;;;;;56.75;23.92;;;;;;;-2.03;83.61;99962.56;5016984;28;20049;-78
2021/12/15 08:21:40;;;;;;;54.75;23.92;;;;;;;-2.02;83.59;99959.22;5001445;28;20124;-78
2021/12/15 08:24:06;;;;;;;56.50;24.27;;;;;;;-2.06;83.18;99959.09;5000103;28;20124;-77
2021/12/15 08:26:32;;;;;;;60.30;24.90;;;;;;;-2.05;83.59;99954.88;4999778;28;20099;-79
2021/12/15 08:28:57;;;;;;;62.25;26.40;;;;;;;-1.98;83.84;99956.03;4967521;28;20030;-78
2021/12/15 08:31:23;;;;;;;56.97;25.42;;;;;;;-1.98;83.45;99953.50;5013837;28;20048;-78
2021/12/15 08:33:49;;;;;;;57.60;25.13;;;;;;;-2.01;82.88;99953.38;5015257;28;20416;-78
2021/12/15 08:36:15;;;;;;;60.10;26.73;;;;;;;-1.98;82.77;99950.97;4996136;28;20098;-81
2021/12/15 08:38:43;;;;;;;57.97;25.73;;;;;;;-1.93;83.33;99944.44;4967819;28;20078;-82
2021/12/15 08:41:14;;;;;;;56.97;25.83;;;;;;;-1.88;83.31;99943.88;5015323;28;20095;-79
2021/12/15 08:43:40;;;;;;;54.13;24.48;;;;;;;-1.84;82.85;99950.84;4975061;28;20070;-82
2021/12/15 08:46:18;;;;;;;56.92;25.20;;;;;;;-1.88;82.67;99953.16;4992771;28;20072;-79
2021/12/15 08:48:44;;;;;;;55.03;24.45;;;;;;;-1.88;82.53;99948.06;4993195;28;20034;-80
2021/12/15 08:51:11;;;;;;;62.58;26.42;;;;;;;-1.88;82.62;99953.16;4992892;28;20038;-85
2021/12/15 08:53:38;;;;;;;60.53;24.75;;;;;;;-1.83;82.91;99952.63;4976518;28;20052;-79
2021/12/15 08:56:04;;;;;;;53.88;24.27;;;;;;;-1.78;82.62;99947.75;4976947;28;20138;-79
2021/12/15 08:58:29;;;;;;;;;;;;;;;-1.61;82.36;99943.47;5009329;28;20065;-79
2021/12/15 09:00:56;;;;;;;56.35;24.08;;;;;;;-1.61;82.44;99934.16;4993252;28;19960;-79
2021/12/15 09:03:22;;;;;;;53.83;21.85;;;;;;;-1.49;81.52;99931.34;5008850;28;20038;-80
2021/12/15 09:05:51;;;;;;;48.88;20.90;;;;;;;-1.41;81.14;99936.81;4976412;28;20118;-81
2021/12/15 09:08:17;;;;;;;45.38;20.30;;;;;;;-1.40;80.89;99928.38;4976766;28;20035;-79
2021/12/15 09:10:45;;;;;;;49.67;20.83;;;;;;;-1.36;80.61;99926.06;4976792;28;20054;-82
2021/12/15 09:13:12;;;;;;;46.75;21.00;;;;;;;-1.32;80.37;99932.16;4992686;28;20104;-81
2021/12/15 09:15:38;;;;;;;50.58;21.10;;;;;;;-1.26;80.09;99926.50;4991967;28;20131;-80
2021/12/15 09:18:04;;;;;;;48.22;21.08;;;;;;;-1.21;80.20;99935.22;5008541;28;20033;-81
2021/12/15 09:20:30;;;;;;;46.08;21.38;;;;;;;-1.14;79.89;99927.06;4991260;28;20091;-80
2021/12/15 09:22:57;;;;;;;43.03;19.80;;;;;;;-1.13;79.49;99928.81;4999070;28;20080;-79
2021/12/15 09:25:23;;;;;;;46.38;21.13;;;;;;;-1.19;79.54;99931.94;4982575;28;20045;-79
2021/12/15 09:27:49;;;;;;;41.72;18.38;;;;;;;-1.19;79.66;99920.88;4995551;28;20586;-81
2021/12/15 09:30:17;;;;;;;45.88;20.52;;;;;;;-1.14;79.18;99921.97;4980215;28;20041;-81
2021/12/15 09:32:43;;;;;;;45.08;20.15;;;;;;;-1.10;79.49;99913.66;4995752;28;20474;-81
2021/12/15 09:35:09;;;;;;;45.67;20.73;;;;;;;-1.12;79.09;99910.19;4979473;28;20033;-79
2021/12/15 09:37:35;;;;;;;43.45;19.35;;;;;;;-1.08;79.09;99902.75;4978611;28;20054;-78
2021/12/15 09:40:00;;;;;;;42.30;20.50;;;;;;;-1.09;78.63;99903.56;4979251;28;20140;-79
2021/12/15 09:42:34;;;;;;;43.13;20.83;;;;;;;-1.07;79.04;99899.41;4962986;28;20042;-79
2021/12/15 09:45:15;;;;;;;47.65;20.92;;;;;;;-1.07;78.27;99898.53;4964964;28;20096;-80
2021/12/15 10:04:43;;;;;;;47.85;22.02;;;;;;;-1.12;78.93;99894.91;5012344;28;20072;-79
2021/12/15 10:12:35;;;;;;;46.25;23.20;;;;;;;-1.13;79.28;99891.50;5020651;28;20049;-79
2021/12/15 10:18:00;;;;;;;45.72;20.90;;;;;;;-1.03;79.14;99900.44;5018042;28;20041;-81
2021/12/15 10:20:26;;;;;;;41.88;18.85;;;;;;;-1.09;78.96;99889.97;5017929;28;20049;-80
2021/12/15 10:22:58;;;;;;;35.25;18.02;;;;;;;-1.05;78.99;99889.31;4969212;28;20035;-78
2021/12/15 10:25:25;;;;;;;37.38;17.42;;;;;;;-1.09;79.14;99890.84;5002200;28;20037;-84
2021/12/15 10:27:59;;;;;;;41.75;19.05;;;;;;;-1.07;78.88;99886.69;5001855;28;20116;-81
2021/12/15 10:30:33;;;;;;;36.50;18.10;;;;;;;-1.08;79.21;99887.47;5017719;28;20144;-79
2021/12/15 10:33:02;;;;;;;37.58;17.52;;;;;;;-1.03;79.48;99885.16;5002084;28;20045;-82
2021/12/15 10:35:32;;;;;;;40.92;18.40;;;;;;;-1.08;79.06;99886.63;5033916;28;20026;-80
2021/12/15 10:38:10;;;;;;;39.42;18.52;;;;;;;-1.08;79.30;99881.53;5017470;28;20096;-80
2021/12/15 10:40:41;;;;;;;41.30;18.02;;;;;;;-1.08;79.18;99884.94;5035144;28;20086;-79
2021/12/15 10:43:07;;;;;;;37.75;18.98;;;;;;;-1.04;79.43;99884.28;5000872;28;20048;-79
2021/12/15 10:45:37;;;;;;;40.92;17.83;;;;;;;-1.00;79.50;99876.78;5010107;28;20034;-78
2021/12/15 10:48:03;;;;;;;34.75;16.48;;;;;;;-1.05;78.99;99869.81;4998208;28;20511;-82
2021/12/15 10:50:29;;;;;;;33.88;15.55;;;;;;;-1.03;79.43;99875.84;4965466;28;20057;-81
2021/12/15 10:52:58;;;;;;;33.78;14.52;;;;;;;-0.83;79.32;99866.53;4981509;28;20492;-79
2021/12/15 10:55:32;;;;;;;35.35;14.85;;;;;;;-0.79;79.10;99870.09;4981472;28;20086;-81
2021/12/15 10:57:58;;;;;;;30.95;14.70;;;;;;;-0.84;78.34;99871.56;4997546;28;20045;-80
2021/12/15 11:00:24;;;;;;;29.73;13.60;;;;;;;-0.84;78.50;99858.84;4965343;28;20061;-79
2021/12/15 11:02:49;;;;;;;27.60;13.20;;;;;;;-0.73;78.95;99867.84;4981230;28;20046;-79
2021/12/15 11:05:16;;;;;;;29.80;13.25;;;;;;;-0.73;78.15;99870.38;4981299;28;20124;-79
2021/12/15 11:07:45;;;;;;;33.20;13.90;;;;;;;-0.91;78.54;99862.78;4997324;28;20038;-79
2021/12/15 11:10:22;;;;;;;29.27;13.65;;;;;;;-0.89;78.74;99861.16;5013676;28;20540;-80
2021/12/15 11:12:51;;;;;;;30.35;14.10;;;;;;;-0.89;78.82;99863.72;4965053;28;20420;-82
2021/12/15 11:15:18;;;;;;;29.02;13.70;;;;;;;-0.77;78.99;99854.09;5014738;28;20092;-80
2021/12/15 11:17:58;;;;;;;32.38;13.48;;;;;;;-0.70;79.05;99860.31;4997046;28;20049;-78
2021/12/15 11:20:37;;;;;;;28.80;12.20;;;;;;;-0.66;78.67;99859.63;5000666;28;20041;-79
2021/12/15 11:23:02;;;;;;;33.88;13.48;;;;;;;-0.70;78.93;99861.97;5000253;28;20037;-78
2021/12/15 11:25:28;;;;;;;34.30;13.73;;;;;;;-0.74;78.98;99857.56;5000247;28;20116;-80
2021/12/15 11:27:56;;;;;;;28.25;13.48;;;;;;;-0.74;79.67;99860.97;5033858;28;20087;-82
2021/12/15 11:30:32;;;;;;;35.90;15.88;;;;;;;-0.78;79.71;99864.19;5016274;28;20045;-79
2021/12/15 11:33:05;;;;;;;32.38;14.55;;;;;;;-0.74;79.94;99868.63;5000877;28;20041;-79
2021/12/15 11:35:37;;;;;;;29.65;13.55;;;;;;;-0.90;80.11;99856.03;4984367;28;20072;-79
2021/12/15 11:38:06;;;;;;;27.75;12.18;;;;;;;-0.85;80.77;99867.28;4984381;28;20049;-78
2021/12/15 11:40:38;;;;;;;26.40;12.55;;;;;;;-0.86;81.18;99856.22;4984170;28;20045;-79
2021/12/15 11:43:05;;;;;;;32.70;13.35;;;;;;;-0.84;80.91;99862.25;5016569;28;20037;-79
2021/12/15 11:45:31;;;;;;;29.27;12.23;;;;;;;-0.95;81.16;99857.50;4977490;28;20038;-78
2021/12/15 11:48:32;;;;;;;23.55;11.32;;;;;;;-0.96;81.81;99856.63;4964868;28;20081;-79
2021/12/15 11:51:00;;;;;;;26.27;12.70;;;;;;;-0.87;81.69;99869.78;4965627;28;20084;-79
2021/12/15 11:53:30;;;;;;;25.77;11.82;;;;;;;-0.94;81.47;99859.22;5014390;28;20181;-79
2021/12/15 11:56:25;;;;;;;23.45;10.05;;;;;;;-0.94;81.86;99849.91;4980397;28;20046;-78
2021/12/15 11:58:57;;;;;;;25.77;11.85;;;;;;;-0.99;81.84;99846.28;5013156;28;20069;-81
2021/12/15 12:01:46;;;;;;;25.20;11.85;;;;;;;-1.00;82.04;99843.69;4997230;28;20046;-78
2021/12/15 12:04:16;;;;;;;21.95;11.30;;;;;;;-0.91;81.80;99839.88;5013986;28;20096;-81
2021/12/15 12:06:43;;;;;;;25.15;11.38;;;;;;;-0.83;82.25;99852.94;5012831;28;20439;-79
2021/12/15 12:09:08;;;;;;;26.63;12.18;;;;;;;-0.91;81.64;99844.97;4964104;28;20041;-79
2021/12/15 12:11:40;;;;;;;21.42;10.48;;;;;;;-0.81;81.84;99858.97;4996636;28;20038;-79
2021/12/15 12:14:07;;;;;;;20.23;9.88;;;;;;;-0.97;81.26;99852.31;4981702;28;20550;-83
2021/12/15 12:16:33;;;;;;;18.40;9.73;;;;;;;-0.95;81.41;99867.69;4996341;28;20034;-80
2021/12/15 12:18:59;;;;;;;18.10;9.43;;;;;;;-0.96;81.76;99868.47;5012291;28;20042;-79
2021/12/15 12:21:24;;;;;;;17.42;9.52;;;;;;;-0.99;81.88;99870.88;5012279;28;20073;-79
2021/12/15 12:23:50;;;;;;;15.98;8.95;;;;;;;-1.07;82.19;99858.66;4995207;28;20052;-80
2021/12/15 12:26:17;;;;;;;20.35;9.55;;;;;;;-1.09;82.23;99865.38;5012543;28;20518;-78
2021/12/15 12:28:45;;;;;;;17.27;8.20;;;;;;;-1.09;82.39;99859.41;4979956;28;20034;-80
2021/12/15 12:31:14;;;;;;;14.55;7.70;;;;;;;-1.12;81.99;99864.38;5012608;28;20488;-80